Time;durP1;ratioP1;P1;durP2;ratioP2;P2;SDS_P1;SDS_P2;PMS_P1;PMS_P2;Temp;Humidity;BMP_temperature;BMP_pressure;BME280_temperature;BME280_humidity;BME280_pressure;Samples;Min_cycle;Max_cycle;Signal;HPM_P1;HPM_P2
2021/01/22 00:02:03;;;;;;;7.87;2.33;;;5.40;99.90;;;;;;5035363;28;20234;-89
2021/01/22 00:04:36;;;;;;;5.90;1.80;;;5.40;99.90;;;;;;5035213;28;20293;-89
2021/01/22 00:07:02;;;;;;;4.83;2.30;;;5.40;99.90;;;;;;5034908;28;20186;-88
2021/01/22 00:09:31;;;;;;;5.33;1.77;;;5.40;99.90;;;;;;5035095;28;20280;-89
2021/01/22 00:12:05;;;;;;;2.80;1.60;;;5.40;99.90;;;;;;5036295;28;20196;-89
2021/01/22 00:14:40;;;;;;;2.50;1.60;;;5.40;99.90;;;;;;5034786;28;20186;-89
2021/01/22 00:17:11;;;;;;;3.73;1.83;;;5.40;99.90;;;;;;5034776;28;20204;-88
2021/01/22 00:19:47;;;;;;;4.50;1.60;;;5.50;99.90;;;;;;5033674;28;20211;-89
2021/01/22 00:22:16;;;;;;;4.57;1.63;;;5.40;99.90;;;;;;5034616;28;20275;-89
2021/01/22 00:24:48;;;;;;;3.13;1.40;;;5.40;99.90;;;;;;5034721;28;20214;-91
2021/01/22 00:27:21;;;;;;;2.40;1.57;;;5.40;99.90;;;;;;5034637;28;20267;-90
2021/01/22 00:29:47;;;;;;;5.13;1.63;;;5.40;99.90;;;;;;5035686;28;20197;-90
2021/01/22 00:32:13;;;;;;;6.03;2.53;;;5.40;99.90;;;;;;5034456;28;20228;-90
2021/01/22 00:34:49;;;;;;;3.27;1.70;;;5.50;99.90;;;;;;5034429;28;20543;-90
2021/01/22 00:37:21;;;;;;;3.30;1.50;;;5.50;99.90;;;;;;5034367;28;20176;-89
2021/01/22 00:39:55;;;;;;;4.07;1.40;;;5.50;99.90;;;;;;5034514;28;20225;-91
2021/01/22 00:42:22;;;;;;;5.87;2.00;;;5.70;99.90;;;;;;5034350;28;20185;-91
2021/01/22 00:44:48;;;;;;;4.17;1.80;;;5.70;99.90;;;;;;5035396;28;20204;-90
2021/01/22 00:47:18;;;;;;;3.00;1.57;;;5.70;99.90;;;;;;5034168;28;20180;-90
2021/01/22 00:49:47;;;;;;;5.77;1.77;;;5.80;99.90;;;;;;5034124;28;20218;-89
2021/01/22 00:52:21;;;;;;;2.97;1.67;;;5.80;99.90;;;;;;5035247;28;20177;-90
2021/01/22 00:54:56;;;;;;;2.73;1.63;;;5.90;99.90;;;;;;5034183;28;20191;-89
2021/01/22 00:57:24;;;;;;;3.27;1.47;;;6.10;99.90;;;;;;5034138;28;20181;-90
2021/01/22 00:59:51;;;;;;;2.50;1.13;;;6.20;99.90;;;;;;5034016;28;20216;-90
2021/01/22 01:02:22;;;;;;;5.43;1.60;;;6.40;99.90;;;;;;5034121;28;20182;-90
2021/01/22 01:04:54;;;;;;;6.00;1.77;;;6.40;99.90;;;;;;5033853;28;20293;-90
2021/01/22 01:07:22;;;;;;;1.20;1.10;;;6.50;99.90;;;;;;5033697;28;20213;-90
2021/01/22 01:09:56;;;;;;;2.17;1.20;;;6.60;99.90;;;;;;5033735;28;20285;-90
2021/01/22 01:12:27;;;;;;;1.83;1.20;;;6.70;99.90;;;;;;5034488;28;20181;-90
2021/01/22 01:14:56;;;;;;;2.43;1.30;;;6.80;99.90;;;;;;5033857;28;20178;-90
2021/01/22 01:17:21;;;;;;;2.93;1.63;;;6.90;99.90;;;;;;5033724;28;20217;-90
2021/01/22 01:19:56;;;;;;;2.23;1.20;;;7.00;99.90;;;;;;5033610;28;20786;-90
2021/01/22 01:22:26;;;;;;;2.80;1.40;;;7.00;99.90;;;;;;5033479;28;20181;-90
2021/01/22 01:24:54;;;;;;;2.13;1.20;;;7.20;99.90;;;;;;5033456;28;20210;-90
2021/01/22 01:27:29;;;;;;;0.97;0.80;;;7.40;99.90;;;;;;5033358;28;20186;-90
2021/01/22 01:30:03;;;;;;;3.23;1.23;;;7.40;99.90;;;;;;5032946;28;20199;-90
2021/01/22 01:32:36;;;;;;;2.30;1.20;;;7.40;99.90;;;;;;5033582;28;20175;-90
2021/01/22 01:35:08;;;;;;;1.70;1.23;;;7.50;99.90;;;;;;5033593;28;20283;-89
2021/01/22 01:37:41;;;;;;;3.10;1.20;;;7.60;99.90;;;;;;5034579;28;20544;-89
2021/01/22 01:40:15;;;;;;;2.20;1.40;;;7.60;99.90;;;;;;5033079;28;20211;-90
2021/01/22 01:42:47;;;;;;;1.63;1.17;;;7.70;99.90;;;;;;5033176;28;20176;-89
2021/01/22 01:45:21;;;;;;;1.20;1.10;;;7.80;99.90;;;;;;5034462;28;20196;-89
2021/01/22 01:47:47;;;;;;;1.47;1.37;;;7.80;99.90;;;;;;5033099;28;20661;-89
2021/01/22 01:50:20;;;;;;;2.20;1.40;;;7.80;99.90;;;;;;5033433;28;20307;-89
2021/01/22 01:52:53;;;;;;;1.33;1.13;;;7.80;99.90;;;;;;5032877;28;20586;-90
2021/01/22 01:55:19;;;;;;;0.90;0.80;;;7.90;99.90;;;;;;5033427;28;20179;-90
2021/01/22 01:57:45;;;;;;;1.07;0.97;;;8.10;99.90;;;;;;5034132;28;20659;-90
2021/01/22 02:00:15;;;;;;;2.30;1.53;;;8.30;99.90;;;;;;5033008;28;20199;-90
2021/01/22 02:02:47;;;;;;;1.63;1.50;;;8.20;99.90;;;;;;5032743;28;20177;-90
2021/01/22 02:05:20;;;;;;;1.67;1.30;;;8.20;99.90;;;;;;5033353;28;20581;-89
2021/01/22 02:07:51;;;;;;;2.70;1.40;;;8.10;99.90;;;;;;5033031;28;20182;-89
2021/01/22 02:10:26;;;;;;;1.33;1.17;;;8.10;99.90;;;;;;5032641;28;20202;-90
2021/01/22 02:12:54;;;;;;;1.20;1.10;;;8.00;99.90;;;;;;5034123;28;20163;-89
2021/01/22 02:15:24;;;;;;;4.47;0.87;;;8.10;99.90;;;;;;5032501;28;20183;-90
2021/01/22 02:17:58;;;;;;;1.63;1.00;;;8.10;99.90;;;;;;5032612;28;20179;-89
2021/01/22 02:20:40;;;;;;;3.93;1.40;;;8.00;99.90;;;;;;5033586;28;20609;-90
2021/01/22 02:23:17;;;;;;;0.90;0.70;;;8.00;99.90;;;;;;5032612;28;20592;-90
2021/01/22 02:25:51;;;;;;;0.70;0.70;;;8.00;99.90;;;;;;5032353;28;20188;-90
2021/01/22 02:28:22;;;;;;;7.80;1.00;;;8.20;99.90;;;;;;5032286;28;20202;-90
2021/01/22 02:30:51;;;;;;;1.60;1.07;;;8.20;99.90;;;;;;5032235;28;20183;-90
2021/01/22 02:33:26;;;;;;;1.53;1.00;;;8.20;99.90;;;;;;5032601;28;20179;-89
2021/01/22 02:36:00;;;;;;;3.53;1.00;;;8.20;99.90;;;;;;5032292;28;20182;-90
2021/01/22 02:38:39;;;;;;;1.07;0.97;;;8.10;99.90;;;;;;5033392;28;20189;-89
2021/01/22 02:41:15;;;;;;;1.90;1.00;;;8.10;99.90;;;;;;5032438;28;20176;-90
2021/01/22 02:43:53;;;;;;;1.50;0.93;;;8.10;99.90;;;;;;5032855;28;20224;-89
2021/01/22 02:46:21;;;;;;;1.77;1.00;;;8.20;99.90;;;;;;5032846;28;20190;-90
2021/01/22 02:49:00;;;;;;;1.60;1.20;;;8.10;99.90;;;;;;5032129;28;20769;-89
2021/01/22 02:51:28;;;;;;;2.13;1.33;;;8.10;99.90;;;;;;5033149;28;20207;-90
2021/01/22 02:53:54;;;;;;;0.77;0.77;;;8.20;99.90;;;;;;5031907;28;20645;-90
2021/01/22 02:56:51;;;;;;;1.17;1.07;;;8.30;99.90;;;;;;5032215;28;20194;-90
2021/01/22 02:59:41;;;;;;;2.87;0.60;;;8.30;99.90;;;;;;5032192;28;20607;-89
2021/01/22 03:02:44;;;;;;;1.20;1.00;;;8.20;99.90;;;;;;5032364;28;20168;-90
2021/01/22 03:05:19;;;;;;;0.90;0.90;;;8.30;99.90;;;;;;5031812;28;20204;-90
2021/01/22 03:07:57;;;;;;;2.17;0.80;;;8.20;99.90;;;;;;5032439;28;20198;-89
2021/01/22 03:10:31;;;;;;;3.77;1.17;;;8.20;99.90;;;;;;5031822;28;20204;-89
2021/01/22 03:12:58;;;;;;;0.77;0.60;;;8.30;99.90;;;;;;5032220;28;20593;-90
2021/01/22 03:15:29;;;;;;;0.50;0.50;;;8.30;99.90;;;;;;5031960;28;20563;-89
2021/01/22 03:18:18;;;;;;;0.90;0.73;;;8.30;99.90;;;;;;5032404;28;20271;-89
2021/01/22 03:20:51;;;;;;;1.27;1.10;;;8.20;99.90;;;;;;5032288;28;20196;-89
2021/01/22 03:23:26;;;;;;;0.70;0.70;;;8.30;99.90;;;;;;5032861;28;20207;-90
2021/01/22 03:26:00;;;;;;;1.23;0.83;;;8.30;99.90;;;;;;5031759;28;20172;-90
2021/01/22 03:28:37;;;;;;;0.97;0.80;;;8.40;99.90;;;;;;5033050;28;20176;-90
2021/01/22 03:31:11;;;;;;;0.77;0.70;;;8.40;99.90;;;;;;5031965;28;20272;-89
2021/01/22 03:33:40;;;;;;;2.33;0.83;;;8.30;99.90;;;;;;5032038;28;20549;-89
2021/01/22 03:36:11;;;;;;;3.00;1.50;;;8.30;99.90;;;;;;5032059;28;20200;-89
2021/01/22 03:38:39;;;;;;;3.10;0.90;;;8.40;99.90;;;;;;5031502;28;20223;-89
2021/01/22 03:41:11;;;;;;;0.97;0.47;;;8.30;99.90;;;;;;5032809;28;20177;-90
2021/01/22 03:43:44;;;;;;;1.77;0.80;;;8.40;99.90;;;;;;5031552;28;20703;-89
2021/01/22 03:46:22;;;;;;;0.77;0.77;;;8.40;99.90;;;;;;5031705;28;20188;-89
2021/01/22 03:48:51;;;;;;;0.60;0.50;;;8.40;99.90;;;;;;5031405;28;20759;-89
2021/01/22 03:51:26;;;;;;;1.90;1.00;;;8.40;99.90;;;;;;5032405;28;20174;-89
2021/01/22 03:53:59;;;;;;;4.63;1.17;;;8.40;99.90;;;;;;5033063;28;20273;-89
2021/01/22 03:56:31;;;;;;;0.60;0.60;;;8.30;99.90;;;;;;5036633;28;20172;-89
2021/01/22 03:59:01;;;;;;;2.00;0.77;;;8.40;99.90;;;;;;5036275;28;20203;-90
2021/01/22 04:01:32;;;;;;;0.87;0.63;;;6.90;99.90;;;;;;5036366;28;20187;-90
2021/01/22 04:04:00;;;;;;;0.93;0.80;;;6.00;99.90;;;;;;5034746;28;20305;-89
2021/01/22 04:06:34;;;;;;;1.40;0.70;;;5.60;99.90;;;;;;5034760;28;20178;-90
2021/01/22 04:09:10;;;;;;;0.67;0.60;;;5.30;99.90;;;;;;5035371;28;20201;-90
2021/01/22 04:11:46;;;;;;;1.90;0.73;;;5.10;99.90;;;;;;5035053;28;20176;-89
2021/01/22 04:14:21;;;;;;;2.90;0.80;;;4.90;99.90;;;;;;5035996;28;20169;-89
2021/01/22 04:16:47;;;;;;;3.20;0.80;;;4.60;99.90;;;;;;5034761;28;20192;-90
2021/01/22 04:19:17;;;;;;;2.30;0.77;;;4.40;99.90;;;;;;5034631;28;20612;-90
2021/01/22 04:21:56;;;;;;;1.63;0.80;;;4.30;99.90;;;;;;5036117;28;20179;-90
2021/01/22 04:24:25;;;;;;;3.83;1.23;;;4.20;99.90;;;;;;5034525;28;20674;-90
2021/01/22 04:26:59;;;;;;;2.07;1.13;;;4.20;99.90;;;;;;5034622;28;20254;-90
2021/01/22 04:29:31;;;;;;;3.03;1.20;;;4.10;99.90;;;;;;5034861;28;20286;-90
2021/01/22 04:32:02;;;;;;;1.67;0.87;;;3.90;99.90;;;;;;5034765;28;20179;-90
2021/01/22 04:34:33;;;;;;;1.60;1.17;;;3.90;99.90;;;;;;5034765;28;20652;-90
2021/01/22 04:37:11;;;;;;;6.17;1.07;;;3.80;99.90;;;;;;5034334;28;20187;-90
2021/01/22 04:39:44;;;;;;;1.63;0.90;;;3.70;99.90;;;;;;5034400;28;20671;-90
2021/01/22 04:42:11;;;;;;;1.00;0.80;;;3.60;99.90;;;;;;5034343;28;20183;-90
2021/01/22 04:44:37;;;;;;;0.63;0.63;;;3.70;99.90;;;;;;5034591;28;20211;-90
2021/01/22 04:47:08;;;;;;;0.50;0.50;;;3.70;99.90;;;;;;5034589;28;20534;-90
2021/01/22 04:49:44;;;;;;;2.67;1.17;;;3.80;99.90;;;;;;5034328;28;20678;-90
2021/01/22 04:52:20;;;;;;;0.57;0.57;;;3.60;99.90;;;;;;5034398;28;20184;-90
2021/01/22 04:54:47;;;;;;;0.70;0.70;;;3.50;99.90;;;;;;5035060;28;20194;-90
2021/01/22 04:57:21;;;;;;;0.60;0.60;;;3.50;99.90;;;;;;5033999;28;20189;-90
2021/01/22 04:59:56;;;;;;;0.50;0.50;;;3.30;99.90;;;;;;5034207;28;20198;-90
2021/01/22 05:02:29;;;;;;;0.50;0.50;;;3.30;99.90;;;;;;5035299;28;20165;-90
2021/01/22 05:04:58;;;;;;;0.60;0.60;;;3.20;99.90;;;;;;5034524;28;20287;-90
2021/01/22 05:07:33;;;;;;;0.63;0.63;;;3.10;99.90;;;;;;5033821;28;20173;-89
2021/01/22 05:10:06;;;;;;;1.60;0.70;;;3.10;99.90;;;;;;5033730;28;20615;-89
2021/01/22 05:12:41;;;;;;;2.00;0.60;;;3.10;99.90;;;;;;5033916;28;20182;-89
2021/01/22 05:15:26;;;;;;;2.17;0.80;;;3.10;99.90;;;;;;5033659;28;20552;-90
2021/01/22 05:18:08;;;;;;;0.80;0.67;;;3.10;99.90;;;;;;5017552;28;20183;-90
2021/01/22 05:20:45;;;;;;;0.73;0.70;;;3.20;99.90;;;;;;5034913;28;20202;-90
2021/01/22 05:23:31;;;;;;;0.63;0.63;;;3.10;99.90;;;;;;5034647;28;20181;-90
2021/01/22 05:26:06;;;;;;;0.70;0.60;;;3.10;99.90;;;;;;5033499;28;20174;-89
2021/01/22 05:28:41;;;;;;;0.70;0.60;;;3.10;99.90;;;;;;5033447;28;20209;-89
2021/01/22 05:31:11;;;;;;;1.40;0.90;;;3.20;99.90;;;;;;5033689;28;20655;-90
2021/01/22 05:33:53;;;;;;;3.40;0.90;;;3.30;99.90;;;;;;5034512;28;20178;-89
2021/01/22 05:36:33;;;;;;;4.10;1.10;;;3.20;99.90;;;;;;5034513;28;20232;-89
2021/01/22 05:39:08;;;;;;;3.37;1.40;;;3.30;99.90;;;;;;5033559;28;20664;-89
2021/01/22 05:41:54;;;;;;;2.97;2.10;;;3.30;99.90;;;;;;5034443;28;20177;-89
2021/01/22 05:44:29;;;;;;;2.30;2.10;;;3.40;99.90;;;;;;5033096;28;20230;-89
2021/01/22 05:47:11;;;;;;;3.73;2.70;;;3.40;99.90;;;;;;5033793;28;20643;-90
2021/01/22 05:50:02;;;;;;;3.43;3.00;;;3.40;99.90;;;;;;5034485;28;20223;-90
2021/01/22 05:52:36;;;;;;;3.20;2.90;;;3.50;99.90;;;;;;5033478;28;20176;-89
2021/01/22 05:55:22;;;;;;;3.17;2.87;;;3.40;99.90;;;;;;5033465;28;20697;-90
2021/01/22 05:57:58;;;;;;;3.90;2.83;;;3.40;99.90;;;;;;5033414;28;20216;-89
2021/01/22 06:00:30;;;;;;;3.40;2.60;;;3.40;99.90;;;;;;5032999;28;20208;-89
2021/01/22 06:03:21;;;;;;;3.53;3.20;;;3.40;99.90;;;;;;5034401;28;20629;-90
2021/01/22 06:05:56;;;;;;;4.30;3.90;;;3.40;99.90;;;;;;5033982;28;20208;-89
2021/01/22 06:08:31;;;;;;;3.67;3.30;;;3.40;99.90;;;;;;5033913;28;20169;-90
2021/01/22 06:11:03;;;;;;;3.70;3.40;;;3.40;99.90;;;;;;5033917;28;20207;-90
2021/01/22 06:13:39;;;;;;;2.73;2.53;;;3.40;99.90;;;;;;5032707;28;20165;-89
2021/01/22 06:16:11;;;;;;;3.00;2.80;;;3.50;99.90;;;;;;5032750;28;20270;-90
2021/01/22 06:18:50;;;;;;;2.00;1.90;;;3.50;99.90;;;;;;5031937;28;20196;-89
2021/01/22 06:21:45;;;;;;;4.10;2.47;;;3.50;99.90;;;;;;5032618;28;20179;-89
2021/01/22 06:24:19;;;;;;;2.70;2.43;;;3.60;99.90;;;;;;5032828;28;20261;-90
2021/01/22 06:26:46;;;;;;;2.43;1.87;;;3.50;99.90;;;;;;5032440;28;20173;-89
2021/01/22 06:29:18;;;;;;;3.53;2.33;;;3.50;99.90;;;;;;5032319;28;20699;-89
2021/01/22 06:31:47;;;;;;;2.37;2.17;;;3.50;99.90;;;;;;5032890;28;20273;-90
2021/01/22 06:34:21;;;;;;;3.67;2.87;;;3.50;99.90;;;;;;5032312;28;20556;-89
2021/01/22 06:36:58;;;;;;;2.40;2.20;;;3.50;99.90;;;;;;5032840;28;20291;-90
2021/01/22 06:39:29;;;;;;;1.70;1.60;;;3.40;99.90;;;;;;5032521;28;20198;-90
2021/01/22 06:42:07;;;;;;;6.27;2.10;;;3.40;99.90;;;;;;5033157;28;20179;-90
2021/01/22 06:44:33;;;;;;;5.57;2.77;;;3.40;99.90;;;;;;5032229;28;20722;-90
2021/01/22 06:47:19;;;;;;;3.47;2.63;;;3.40;99.90;;;;;;5032376;28;20177;-89
2021/01/22 06:49:53;;;;;;;3.27;2.00;;;3.30;99.90;;;;;;5032060;28;20699;-90
2021/01/22 06:52:20;;;;;;;3.23;2.30;;;3.30;99.90;;;;;;5032219;28;20179;-89
2021/01/22 06:55:10;;;;;;;2.37;2.17;;;3.30;99.90;;;;;;5033523;28;20186;-89
2021/01/22 06:57:39;;;;;;;4.70;3.40;;;3.30;99.90;;;;;;5033307;28;20256;-89
2021/01/22 07:00:34;;;;;;;2.70;1.93;;;3.30;99.90;;;;;;5032582;28;20208;-90
2021/01/22 07:03:04;;;;;;;4.13;2.37;;;3.30;99.90;;;;;;5027218;28;20213;-89
2021/01/22 07:05:35;;;;;;;3.30;2.03;;;3.50;99.90;;;;;;5033230;28;20185;-89
2021/01/22 07:08:11;;;;;;;2.90;2.63;;;3.50;99.90;;;;;;5031975;28;20186;-89
2021/01/22 07:11:00;;;;;;;2.13;1.90;;;3.50;99.90;;;;;;5033060;28;20604;-90
2021/01/22 07:13:39;;;;;;;5.43;2.90;;;3.60;99.90;;;;;;5032259;28;20237;-90
2021/01/22 07:16:26;;;;;;;5.53;3.23;;;3.50;99.90;;;;;;5031958;28;20526;-89
2021/01/22 07:19:04;;;;;;;3.53;2.60;;;3.60;99.90;;;;;;5032252;28;20201;-90
2021/01/22 07:21:46;;;;;;;5.87;2.63;;;3.60;99.90;;;;;;5032359;28;20204;-90
2021/01/22 07:24:21;;;;;;;3.53;2.70;;;3.70;99.90;;;;;;5032585;28;20213;-90
2021/01/22 07:26:56;;;;;;;7.37;3.53;;;3.70;99.90;;;;;;5033080;28;20147;-89
2021/01/22 07:29:29;;;;;;;5.43;3.23;;;3.70;99.90;;;;;;5034279;28;20280;-89
2021/01/22 07:32:06;;;;;;;4.83;2.77;;;3.70;99.90;;;;;;5035767;28;20176;-89
2021/01/22 07:34:46;;;;;;;2.90;2.70;;;3.70;99.90;;;;;;5036874;28;20609;-89
2021/01/22 07:37:26;;;;;;;10.30;4.33;;;3.80;99.90;;;;;;5036000;28;20240;-89
2021/01/22 07:39:59;;;;;;;6.67;4.43;;;3.70;99.90;;;;;;5035554;28;20201;-90
2021/01/22 07:42:31;;;;;;;5.63;3.57;;;3.80;99.90;;;;;;5035371;28;20182;-90
2021/01/22 07:45:10;;;;;;;6.20;2.83;;;3.80;99.90;;;;;;5036038;28;20204;-90
2021/01/22 07:47:44;;;;;;;8.80;3.13;;;3.80;99.90;;;;;;5035525;28;20184;-90
2021/01/22 07:50:18;;;;;;;5.20;4.20;;;3.80;99.90;;;;;;5036895;28;20204;-90
2021/01/22 07:52:51;;;;;;;9.63;5.30;;;3.70;99.90;;;;;;5035456;28;20293;-89
2021/01/22 07:55:24;;;;;;;7.20;4.23;;;3.80;99.90;;;;;;5035256;28;20230;-89
2021/01/22 07:58:07;;;;;;;9.40;4.77;;;3.70;99.90;;;;;;5035038;28;20687;-89
2021/01/22 08:00:46;;;;;;;9.83;4.27;;;3.80;99.90;;;;;;5036317;28;20201;-89
2021/01/22 08:03:20;;;;;;;4.87;3.40;;;3.80;99.90;;;;;;5035517;28;20188;-90
2021/01/22 08:05:57;;;;;;;9.77;4.43;;;3.70;99.90;;;;;;5036476;28;20184;-90
2021/01/22 08:08:28;;;;;;;7.53;4.30;;;3.80;99.90;;;;;;5036107;28;20175;-89
2021/01/22 08:11:16;;;;;;;9.47;5.00;;;3.80;99.90;;;;;;5035544;28;20640;-90
2021/01/22 08:13:47;;;;;;;6.77;5.37;;;3.80;99.90;;;;;;5035366;28;20178;-89
2021/01/22 08:16:24;;;;;;;9.73;5.23;;;3.70;99.90;;;;;;5035250;28;20191;-89
2021/01/22 08:19:00;;;;;;;9.30;5.53;;;3.70;99.90;;;;;;5034828;28;20291;-89
2021/01/22 08:21:41;;;;;;;6.27;4.47;;;3.70;99.90;;;;;;5035067;28;20207;-90
2021/01/22 08:24:18;;;;;;;11.20;5.70;;;3.80;99.90;;;;;;5034614;28;20203;-90
2021/01/22 08:27:03;;;;;;;10.50;5.87;;;3.80;99.90;;;;;;5035226;28;20535;-89
2021/01/22 08:29:37;;;;;;;14.73;7.10;;;3.80;99.90;;;;;;5035730;28;20241;-90
2021/01/22 08:32:19;;;;;;;4.43;3.20;;;3.80;99.90;;;;;;5034796;28;20710;-90
2021/01/22 08:34:51;;;;;;;11.00;5.00;;;3.90;99.90;;;;;;5035111;28;20202;-90
2021/01/22 08:37:25;;;;;;;9.07;4.20;;;3.90;99.90;;;;;;5034907;28;20786;-89
2021/01/22 08:39:58;;;;;;;11.43;6.27;;;3.90;99.90;;;;;;5033487;28;20614;-90
2021/01/22 08:42:32;;;;;;;8.50;5.67;;;3.90;99.90;;;;;;5034399;28;20174;-90
2021/01/22 08:45:04;;;;;;;10.87;5.50;;;3.90;99.90;;;;;;5034444;28;20189;-90
2021/01/22 08:47:45;;;;;;;8.47;5.07;;;3.90;99.90;;;;;;5035740;28;20540;-89
2021/01/22 08:50:21;;;;;;;7.97;5.63;;;4.00;99.90;;;;;;5153513;22;20720;-89
2021/01/22 08:53:09;;;;;;;8.57;5.90;;;4.00;99.90;;;;;;5074385;28;20159;-89
2021/01/22 08:55:41;;;;;;;16.50;6.33;;;4.10;99.90;;;;;;5073868;28;20185;-89
2021/01/22 08:58:11;;;;;;;12.17;7.57;;;4.20;99.90;;;;;;5073984;28;20663;-88
2021/01/22 09:00:38;;;;;;;14.40;7.17;;;4.20;99.90;;;;;;5074322;28;20558;-89
2021/01/22 09:03:26;;;;;;;7.67;6.13;;;4.20;99.90;;;;;;5075247;28;20386;-88
2021/01/22 09:05:59;;;;;;;8.70;5.03;;;4.20;99.90;;;;;;5073910;28;20165;-88
2021/01/22 09:08:32;;;;;;;9.10;5.67;;;4.20;99.90;;;;;;5073748;28;20171;-89
2021/01/22 09:11:06;;;;;;;9.40;6.03;;;4.30;99.90;;;;;;5073813;28;20248;-88
2021/01/22 09:13:32;;;;;;;10.13;5.77;;;4.40;99.90;;;;;;5073849;28;20657;-88
2021/01/22 09:16:09;;;;;;;13.93;6.90;;;4.50;99.90;;;;;;5074834;28;20181;-88
2021/01/22 09:18:44;;;;;;;12.50;5.70;;;4.50;99.90;;;;;;5073643;28;20726;-88
2021/01/22 09:21:21;;;;;;;10.13;7.00;;;4.50;99.90;;;;;;5073419;28;20197;-88
2021/01/22 09:23:56;;;;;;;14.70;7.27;;;4.50;99.90;;;;;;5073739;28;20195;-88
2021/01/22 09:26:24;;;;;;;13.83;7.20;;;4.50;99.90;;;;;;5073788;28;20171;-88
2021/01/22 09:28:59;;;;;;;8.90;6.40;;;4.50;99.90;;;;;;5073419;28;20170;-88
2021/01/22 09:31:26;;;;;;;7.33;5.20;;;4.60;99.90;;;;;;5074208;28;20172;-89
2021/01/22 09:34:01;;;;;;;9.87;7.27;;;4.60;99.90;;;;;;5073712;28;20175;-89
2021/01/22 09:36:31;;;;;;;11.70;8.40;;;4.60;99.90;;;;;;5073531;28;20177;-89
2021/01/22 09:39:02;;;;;;;10.17;7.70;;;4.60;99.90;;;;;;5073381;28;20186;-89
2021/01/22 09:41:34;;;;;;;12.27;6.07;;;4.60;99.90;;;;;;5073940;28;20266;-88
2021/01/22 09:44:07;;;;;;;10.87;5.97;;;4.60;99.90;;;;;;5073085;28;20604;-88
2021/01/22 09:46:37;;;;;;;12.40;7.47;;;4.50;99.90;;;;;;5073896;28;20169;-88
2021/01/22 09:49:10;;;;;;;9.00;6.03;;;4.60;99.90;;;;;;5072848;28;20201;-88
2021/01/22 09:51:36;;;;;;;7.83;6.23;;;4.60;99.90;;;;;;5072822;28;20639;-89
2021/01/22 09:54:09;;;;;;;7.97;6.33;;;4.70;99.90;;;;;;5074105;28;20179;-88
2021/01/22 09:56:41;;;;;;;10.67;7.03;;;4.70;99.90;;;;;;5073515;28;20639;-88
2021/01/22 09:59:14;;;;;;;8.53;6.10;;;4.60;99.90;;;;;;5073011;28;20185;-89
2021/01/22 10:01:44;;;;;;;11.07;6.13;;;4.80;99.90;;;;;;5072817;28;20179;-88
2021/01/22 10:04:22;;;;;;;10.50;7.47;;;4.80;99.90;;;;;;5072771;28;20202;-88
2021/01/22 10:06:51;;;;;;;15.23;5.97;;;4.80;99.90;;;;;;5073882;28;20670;-87
2021/01/22 10:09:26;;;;;;;10.67;6.80;;;4.70;99.90;;;;;;5072583;28;20244;-87
2021/01/22 10:11:58;;;;;;;9.97;6.20;;;4.70;99.90;;;;;;5074086;28;20153;-88
2021/01/22 10:14:28;;;;;;;13.87;7.83;;;4.70;99.90;;;;;;5072896;28;20182;-88
2021/01/22 10:17:01;;;;;;;8.17;6.83;;;4.80;99.90;;;;;;5072444;28;20183;-88
2021/01/22 10:19:29;;;;;;;13.23;7.17;;;4.80;99.90;;;;;;5072426;28;20202;-88
2021/01/22 10:22:00;;;;;;;10.73;7.37;;;4.80;99.90;;;;;;5072412;28;20806;-88
2021/01/22 10:24:26;;;;;;;10.90;7.67;;;4.80;99.90;;;;;;5072202;28;20284;-88
2021/01/22 10:26:55;;;;;;;13.90;7.93;;;4.80;99.90;;;;;;5073615;28;20573;-88
2021/01/22 10:29:28;;;;;;;10.63;5.53;;;4.90;99.90;;;;;;5073698;28;20221;-88
2021/01/22 10:31:54;;;;;;;12.30;6.30;;;4.80;99.90;;;;;;5072755;28;20181;-88
2021/01/22 10:34:20;;;;;;;11.67;6.90;;;4.90;99.90;;;;;;5072787;28;20699;-88
2021/01/22 10:36:52;;;;;;;10.50;5.80;;;4.90;99.90;;;;;;5072355;28;20178;-87
2021/01/22 10:39:21;;;;;;;11.57;6.57;;;4.90;99.90;;;;;;5074247;28;20208;-88
2021/01/22 10:41:52;;;;;;;16.03;6.40;;;4.90;99.90;;;;;;5073633;28;20180;-88
2021/01/22 10:44:26;;;;;;;10.93;5.73;;;4.90;99.90;;;;;;5071991;28;20204;-88
2021/01/22 10:46:59;;;;;;;12.50;6.83;;;5.00;99.90;;;;;;5072174;28;20176;-88
2021/01/22 10:49:31;;;;;;;14.73;8.73;;;4.90;99.90;;;;;;5072354;28;20203;-88
2021/01/22 10:52:05;;;;;;;6.67;4.97;;;5.00;99.90;;;;;;5072740;28;20262;-88
2021/01/22 10:54:37;;;;;;;11.97;5.70;;;5.10;99.90;;;;;;5072395;28;20224;-88
2021/01/22 10:57:11;;;;;;;11.07;6.23;;;5.20;99.90;;;;;;5072064;28;20201;-88
2021/01/22 10:59:46;;;;;;;6.83;5.30;;;5.30;99.90;;;;;;5073182;28;20218;-88
2021/01/22 11:02:19;;;;;;;10.50;5.60;;;5.50;99.90;;;;;;5072477;28;20639;-88
2021/01/22 11:04:51;;;;;;;12.30;5.37;;;5.50;99.90;;;;;;5075478;28;20238;-88
2021/01/22 11:07:19;;;;;;;11.17;5.87;;;5.50;99.90;;;;;;5077263;28;20194;-88
2021/01/22 11:09:51;;;;;;;10.93;5.67;;;5.70;99.90;;;;;;5075954;28;20553;-89
2021/01/22 11:12:21;;;;;;;13.53;6.33;;;5.80;99.90;;;;;;5076010;28;20172;-90
2021/01/22 11:14:54;;;;;;;10.30;5.03;;;5.70;99.90;;;;;;5076036;28;20546;-89
2021/01/22 11:17:20;;;;;;;12.27;4.83;;;5.50;99.90;;;;;;5075890;28;20181;-90
2021/01/22 11:19:46;;;;;;;10.03;4.93;;;5.60;99.90;;;;;;5077128;28;20690;-89
2021/01/22 11:22:19;;;;;;;15.60;7.17;;;5.80;99.90;;;;;;5075697;28;20171;-89
2021/01/22 11:24:51;;;;;;;7.33;4.27;;;5.80;99.90;;;;;;5076287;28;20207;-89
2021/01/22 11:27:21;;;;;;;12.80;5.73;;;5.70;99.90;;;;;;5075771;28;20171;-88
2021/01/22 11:29:53;;;;;;;14.53;4.80;;;5.80;99.90;;;;;;5075446;28;20575;-88
2021/01/22 11:32:23;;;;;;;7.93;4.37;;;5.60;99.90;;;;;;5075912;28;20175;-88
2021/01/22 11:34:53;;;;;;;12.13;4.47;;;5.60;99.90;;;;;;5075372;28;20554;-88
2021/01/22 11:37:20;;;;;;;12.80;4.40;;;5.50;99.90;;;;;;5075154;28;20209;-88
2021/01/22 11:39:51;;;;;;;13.33;4.80;;;5.50;99.90;;;;;;5076468;28;20191;-88
2021/01/22 11:42:17;;;;;;;8.07;3.23;;;5.70;99.90;;;;;;5075036;28;20186;-88
2021/01/22 11:44:44;;;;;;;12.13;3.70;;;5.60;99.90;;;;;;5075080;28;20690;-88
2021/01/22 11:47:15;;;;;;;5.27;3.40;;;5.70;99.90;;;;;;5075170;28;20175;-88
2021/01/22 11:49:43;;;;;;;12.70;4.87;;;5.70;99.90;;;;;;5075076;28;20208;-88
2021/01/22 11:52:15;;;;;;;11.30;4.57;;;5.80;99.90;;;;;;5075118;28;20258;-88
2021/01/22 11:54:44;;;;;;;9.27;4.70;;;5.80;99.90;;;;;;5074874;28;20179;-88
2021/01/22 11:57:16;;;;;;;13.17;4.47;;;5.90;99.90;;;;;;5074836;28;20199;-88
2021/01/22 11:59:42;;;;;;;11.30;5.00;;;6.00;99.90;;;;;;5074787;28;20227;-88
2021/01/22 12:02:15;;;;;;;12.87;4.00;;;5.90;99.90;;;;;;5075937;28;20171;-88
2021/01/22 12:04:47;;;;;;;17.03;4.33;;;5.80;99.90;;;;;;5074678;28;20206;-88
2021/01/22 12:07:18;;;;;;;16.67;4.30;;;5.70;99.90;;;;;;5074947;28;20263;-88
2021/01/22 12:09:46;;;;;;;11.77;3.93;;;5.80;99.90;;;;;;5075848;28;20678;-87
2021/01/22 12:12:20;;;;;;;6.87;3.40;;;5.90;99.90;;;;;;5074675;28;20172;-88
2021/01/22 12:14:56;;;;;;;11.00;3.50;;;6.00;99.90;;;;;;5074620;28;20179;-90
2021/01/22 12:17:23;;;;;;;10.37;5.03;;;5.90;99.90;;;;;;5075190;28;20167;-88
2021/01/22 12:19:53;;;;;;;10.53;4.63;;;5.90;99.90;;;;;;5074695;28;20199;-88
2021/01/22 12:22:21;;;;;;;10.97;4.47;;;5.80;99.90;;;;;;5074609;28;20183;-89
2021/01/22 12:24:53;;;;;;;8.87;3.73;;;5.90;99.90;;;;;;5074658;28;20551;-88
2021/01/22 12:27:21;;;;;;;8.80;3.27;;;5.90;99.90;;;;;;5074662;28;20215;-88
2021/01/22 12:29:56;;;;;;;12.77;3.57;;;5.80;99.90;;;;;;5074467;28;20727;-88
2021/01/22 12:32:23;;;;;;;18.37;4.03;;;5.80;99.90;;;;;;5074439;28;20257;-88
2021/01/22 12:34:55;;;;;;;8.23;3.50;;;5.70;99.90;;;;;;5074360;28;20168;-88
2021/01/22 12:37:23;;;;;;;15.73;4.27;;;5.70;99.90;;;;;;5075518;28;20178;-89
2021/01/22 12:39:56;;;;;;;12.90;4.23;;;5.60;99.90;;;;;;5074368;28;20195;-89
2021/01/22 12:42:25;;;;;;;8.10;3.57;;;5.60;99.90;;;;;;5074264;28;20179;-89
2021/01/22 12:44:54;;;;;;;12.77;3.80;;;5.60;99.90;;;;;;5074234;28;20611;-89
2021/01/22 12:47:29;;;;;;;11.87;3.27;;;5.60;99.90;;;;;;5075705;28;20168;-89
2021/01/22 12:50:01;;;;;;;5.83;3.50;;;5.60;99.90;;;;;;5075206;28;20693;-89
2021/01/22 12:52:38;;;;;;;9.27;3.90;;;5.70;99.90;;;;;;5075336;28;20171;-90
2021/01/22 12:55:09;;;;;;;14.73;4.47;;;5.60;99.90;;;;;;5075946;28;20163;-88
2021/01/22 12:57:41;;;;;;;13.40;4.37;;;5.60;99.90;;;;;;5074227;28;20191;-88
2021/01/22 13:00:12;;;;;;;12.43;4.30;;;5.70;99.90;;;;;;5075329;28;20219;-88
2021/01/22 13:02:47;;;;;;;7.83;3.50;;;5.70;99.90;;;;;;5073857;28;20578;-88
2021/01/22 13:05:17;;;;;;;6.47;3.27;;;5.80;99.90;;;;;;5075041;28;20238;-88
2021/01/22 13:07:50;;;;;;;7.60;3.47;;;5.90;99.90;;;;;;5073696;28;20201;-88
2021/01/22 13:10:23;;;;;;;6.67;2.93;;;5.80;99.90;;;;;;5073889;28;20191;-89
2021/01/22 13:13:00;;;;;;;12.10;3.73;;;5.80;99.90;;;;;;5073926;28;20179;-88
2021/01/22 13:15:26;;;;;;;9.00;3.00;;;5.90;99.90;;;;;;5074724;28;20655;-89
2021/01/22 13:17:52;;;;;;;7.33;3.27;;;5.80;99.90;;;;;;5073679;28;20186;-88
2021/01/22 13:20:21;;;;;;;11.30;3.90;;;5.80;99.90;;;;;;5073471;28;20202;-88
2021/01/22 13:22:52;;;;;;;13.17;4.20;;;5.70;99.90;;;;;;5073726;28;20190;-88
2021/01/22 13:25:20;;;;;;;11.07;4.07;;;5.70;99.90;;;;;;5073574;28;20195;-88
2021/01/22 13:27:53;;;;;;;15.13;4.27;;;5.70;99.90;;;;;;5074136;28;20163;-88